Time;durP1;ratioP1;P1;durP2;ratioP2;P2;SDS_P1;SDS_P2;PMS_P1;PMS_P2;Temp;Humidity;BMP_temperature;BMP_pressure;BME280_temperature;BME280_humidity;BME280_pressure;Samples;Min_cycle;Max_cycle;Signal;HPM_P1;HPM_P2
2023/04/30 00:00:38;;;;;;;12.93;7.43;;;12.00;99.90;;;;;;5016975;28;20396;-80
2023/04/30 00:03:04;;;;;;;11.95;7.70;;;12.00;99.90;;;;;;5038818;28;20116;-78
2023/04/30 00:05:36;;;;;;;13.02;7.93;;;12.00;99.90;;;;;;5021482;28;20080;-79
2023/04/30 00:08:01;;;;;;;12.30;8.02;;;12.10;99.90;;;;;;5038444;28;20025;-79
2023/04/30 00:10:30;;;;;;;15.35;8.85;;;12.10;99.90;;;;;;5030900;28;20040;-78
2023/04/30 00:12:56;;;;;;;11.88;8.35;;;12.10;99.90;;;;;;5035185;28;20245;-78
2023/04/30 00:15:21;;;;;;;11.73;7.70;;;12.10;99.90;;;;;;5037532;28;20373;-79
2023/04/30 00:17:50;;;;;;;12.10;7.88;;;12.10;99.90;;;;;;5039985;28;20093;-79
2023/04/30 00:20:19;;;;;;;12.35;7.72;;;12.20;99.90;;;;;;5038939;28;20025;-79
2023/04/30 00:22:44;;;;;;;10.25;7.03;;;12.10;99.90;;;;;;5023764;28;20056;-78
2023/04/30 00:25:10;;;;;;;12.68;7.55;;;12.20;99.90;;;;;;5041607;28;20029;-78
2023/04/30 00:27:41;;;;;;;12.15;7.43;;;12.10;99.90;;;;;;5023722;28;20030;-79
2023/04/30 00:30:07;;;;;;;13.18;7.60;;;12.10;99.90;;;;;;5024095;28;20025;-78
2023/04/30 00:32:33;;;;;;;10.93;7.05;;;12.10;99.90;;;;;;5041314;28;20028;-78
2023/04/30 00:34:58;;;;;;;11.38;6.95;;;12.10;99.90;;;;;;5041362;28;20085;-78
2023/04/30 00:37:24;;;;;;;10.52;7.05;;;12.00;99.90;;;;;;5041033;28;20029;-78
2023/04/30 00:39:53;;;;;;;9.52;6.88;;;12.00;99.90;;;;;;5036683;28;20040;-79
2023/04/30 00:42:21;;;;;;;10.07;7.00;;;12.00;99.90;;;;;;5035591;28;20021;-79
2023/04/30 00:44:49;;;;;;;11.30;6.88;;;12.00;99.90;;;;;;5038152;28;20040;-78
2023/04/30 00:47:15;;;;;;;14.40;6.70;;;12.00;99.90;;;;;;5036041;28;20040;-78
2023/04/30 00:49:41;;;;;;;10.60;6.82;;;12.00;99.90;;;;;;5034274;28;20018;-78
2023/04/30 00:52:06;;;;;;;10.70;6.93;;;12.00;99.90;;;;;;5036963;28;20036;-79
2023/04/30 00:54:34;;;;;;;11.15;7.03;;;12.00;99.90;;;;;;5037501;28;20025;-78
2023/04/30 00:57:01;;;;;;;10.02;6.20;;;12.00;99.90;;;;;;5037173;28;20029;-78
2023/04/30 00:59:30;;;;;;;9.48;6.47;;;11.90;99.90;;;;;;5037433;28;20372;-78
2023/04/30 01:01:56;;;;;;;9.00;6.45;;;11.90;99.90;;;;;;5033337;28;20100;-78
2023/04/30 01:04:22;;;;;;;8.88;6.05;;;11.90;99.90;;;;;;5036958;28;20057;-77
2023/04/30 01:06:56;;;;;;;10.65;6.47;;;11.90;99.90;;;;;;5037374;28;20056;-78
2023/04/30 01:09:22;;;;;;;13.40;7.50;;;11.90;99.90;;;;;;5032749;28;20066;-79
2023/04/30 01:12:27;;;;;;;11.52;7.18;;;11.80;99.90;;;;;;5016349;28;20053;-80
2023/04/30 01:15:03;;;;;;;12.13;7.10;;;11.80;99.90;;;;;;5028970;28;20033;-80
2023/04/30 01:17:52;;;;;;;10.10;6.47;;;11.80;99.90;;;;;;5033759;28;20037;-79
2023/04/30 01:20:18;;;;;;;10.80;6.72;;;11.80;99.90;;;;;;5030251;28;20026;-79
2023/04/30 01:23:35;;;;;;;8.88;6.55;;;11.80;99.90;;;;;;5031087;28;20029;-79
2023/04/30 01:26:10;;;;;;;16.02;7.00;;;11.80;99.90;;;;;;5030368;28;20137;-79
2023/04/30 01:28:37;;;;;;;11.05;7.00;;;11.80;99.90;;;;;;5034216;28;20083;-78
2023/04/30 01:31:02;;;;;;;9.32;6.53;;;11.80;99.90;;;;;;5036967;28;20068;-78
2023/04/30 01:33:28;;;;;;;13.32;6.30;;;11.80;99.90;;;;;;5034918;28;20114;-78
2023/04/30 01:36:29;;;;;;;10.05;7.25;;;11.70;99.90;;;;;;5035700;28;20033;-78
2023/04/30 01:39:43;;;;;;;12.50;6.72;;;11.70;99.90;;;;;;5036536;28;20029;-78
2023/04/30 01:42:29;;;;;;;10.85;6.63;;;11.80;99.90;;;;;;5015462;28;20081;-78
2023/04/30 01:45:10;;;;;;;8.23;6.30;;;11.70;99.90;;;;;;5033240;28;20029;-79
2023/04/30 01:47:55;;;;;;;12.52;6.57;;;11.70;99.90;;;;;;5029555;28;20085;-78
2023/04/30 01:50:37;;;;;;;9.98;6.20;;;11.70;99.90;;;;;;5028378;28;20034;-79
2023/04/30 01:53:08;;;;;;;8.15;5.00;;;11.60;99.90;;;;;;5030673;28;20037;-78
2023/04/30 01:55:41;;;;;;;7.93;5.43;;;11.50;99.90;;;;;;5025851;28;20393;-78
2023/04/30 01:58:11;;;;;;;9.63;6.30;;;11.50;99.90;;;;;;5026436;28;20025;-77
2023/04/30 02:00:37;;;;;;;8.10;5.10;;;11.50;99.90;;;;;;5031241;28;20057;-78
2023/04/30 02:03:02;;;;;;;8.63;5.30;;;11.40;99.90;;;;;;5032531;28;20484;-77
2023/04/30 02:05:28;;;;;;;9.05;5.63;;;11.40;99.90;;;;;;5030677;28;20345;-78
2023/04/30 02:07:54;;;;;;;8.38;5.10;;;11.30;99.90;;;;;;5007730;28;20068;-78
2023/04/30 02:10:31;;;;;;;6.22;4.60;;;11.30;99.90;;;;;;5031311;28;20189;-78
2023/04/30 02:12:57;;;;;;;6.78;4.97;;;11.30;99.90;;;;;;5008357;28;20038;-78
2023/04/30 02:15:23;;;;;;;8.13;5.22;;;11.30;99.90;;;;;;5011994;28;20502;-78
2023/04/30 02:17:54;;;;;;;8.27;4.85;;;11.20;99.90;;;;;;5028011;28;20030;-77
2023/04/30 02:20:29;;;;;;;7.95;4.80;;;11.20;99.90;;;;;;5026859;28;20030;-78
2023/04/30 02:22:55;;;;;;;7.50;4.72;;;11.20;99.90;;;;;;5032972;28;20503;-78
2023/04/30 02:25:20;;;;;;;8.23;4.68;;;11.10;99.90;;;;;;5035434;28;20052;-78
2023/04/30 02:27:52;;;;;;;6.80;4.97;;;11.10;99.90;;;;;;5034385;28;20364;-78
2023/04/30 02:30:29;;;;;;;8.35;4.35;;;11.10;99.90;;;;;;5029100;28;20022;-78
2023/04/30 02:32:55;;;;;;;6.35;4.50;;;11.10;99.90;;;;;;5031026;28;20511;-78
2023/04/30 02:35:20;;;;;;;12.85;5.22;;;11.00;99.90;;;;;;5033061;28;20416;-78
2023/04/30 02:37:46;;;;;;;8.63;5.05;;;11.00;99.90;;;;;;5031249;28;20483;-78
2023/04/30 02:40:14;;;;;;;7.28;4.70;;;11.00;99.90;;;;;;5029610;28;20045;-78
2023/04/30 02:42:43;;;;;;;7.35;5.10;;;11.00;99.90;;;;;;5032520;28;20186;-79
2023/04/30 02:45:11;;;;;;;6.95;4.70;;;10.90;99.90;;;;;;5016783;28;20033;-79
2023/04/30 02:47:40;;;;;;;6.85;5.15;;;10.90;99.90;;;;;;5029046;28;20022;-78
2023/04/30 02:50:06;;;;;;;7.55;5.00;;;10.90;99.90;;;;;;5032830;28;20442;-78
2023/04/30 02:52:35;;;;;;;8.25;5.18;;;10.90;99.90;;;;;;5031781;28;20025;-78
2023/04/30 02:55:04;;;;;;;6.80;4.45;;;10.90;99.90;;;;;;5028738;28;20036;-77
2023/04/30 02:57:29;;;;;;;8.85;5.25;;;10.90;99.90;;;;;;5030598;28;20381;-77
2023/04/30 02:59:58;;;;;;;7.75;5.07;;;10.80;99.90;;;;;;5010373;28;20029;-77
2023/04/30 03:02:24;;;;;;;12.05;4.50;;;10.80;99.90;;;;;;5025425;28;20033;-78
2023/04/30 03:04:49;;;;;;;8.20;4.53;;;10.90;99.90;;;;;;5028042;28;20083;-78
2023/04/30 03:07:15;;;;;;;10.93;5.72;;;10.80;99.90;;;;;;5010359;28;20037;-78
2023/04/30 03:09:41;;;;;;;7.53;4.88;;;10.80;99.90;;;;;;5029159;28;20476;-78
2023/04/30 03:12:06;;;;;;;11.85;4.85;;;10.80;99.90;;;;;;5031643;28;20052;-79
2023/04/30 03:14:32;;;;;;;10.23;5.60;;;10.80;99.90;;;;;;5015861;28;20022;-79
2023/04/30 03:16:57;;;;;;;11.32;5.88;;;10.80;99.90;;;;;;5033923;28;20068;-78
2023/04/30 03:19:24;;;;;;;8.38;5.85;;;10.70;99.90;;;;;;5027884;28;20079;-79
2023/04/30 03:21:54;;;;;;;7.47;5.40;;;10.80;99.90;;;;;;5032687;28;20021;-78
2023/04/30 03:24:19;;;;;;;11.15;6.70;;;10.80;99.90;;;;;;5027866;28;20017;-77
2023/04/30 03:26:45;;;;;;;12.05;6.30;;;10.70;99.90;;;;;;5034821;28;20031;-77
2023/04/30 03:29:11;;;;;;;10.02;6.30;;;10.70;99.90;;;;;;5030411;28;20025;-78
2023/04/30 03:31:37;;;;;;;11.57;6.85;;;10.70;99.90;;;;;;5031163;28;20090;-78
2023/04/30 03:34:05;;;;;;;13.50;6.80;;;10.70;99.90;;;;;;5019553;28;20034;-78
2023/04/30 03:36:31;;;;;;;10.40;6.40;;;10.70;99.90;;;;;;5028656;28;20188;-78
2023/04/30 03:38:56;;;;;;;12.30;6.95;;;10.60;99.90;;;;;;5028177;28;20037;-77
2023/04/30 03:41:23;;;;;;;11.50;6.70;;;10.60;99.90;;;;;;5028037;28;20022;-77
2023/04/30 03:43:48;;;;;;;12.88;7.25;;;10.60;99.90;;;;;;5030493;28;20032;-78
2023/04/30 03:46:14;;;;;;;11.43;7.22;;;10.60;99.90;;;;;;5030725;28;20022;-77
2023/04/30 03:48:40;;;;;;;10.55;6.65;;;10.50;99.90;;;;;;5031135;28;20030;-77
2023/04/30 03:51:05;;;;;;;11.55;6.45;;;10.50;99.90;;;;;;5014135;28;20022;-77
2023/04/30 03:53:37;;;;;;;13.55;6.53;;;10.40;99.90;;;;;;5026930;28;20026;-77
2023/04/30 03:56:06;;;;;;;11.70;7.15;;;10.40;99.90;;;;;;5031844;28;20104;-77
2023/04/30 03:58:32;;;;;;;13.20;6.97;;;10.40;99.90;;;;;;5030617;28;20057;-77
2023/04/30 04:00:58;;;;;;;11.95;7.88;;;10.40;99.90;;;;;;5028911;28;20045;-78
2023/04/30 04:03:23;;;;;;;11.45;7.47;;;10.40;99.90;;;;;;5030189;28;20075;-78
2023/04/30 04:05:49;;;;;;;12.60;6.85;;;10.30;99.90;;;;;;5032602;28;20049;-78
2023/04/30 04:08:14;;;;;;;10.57;5.93;;;10.30;99.90;;;;;;5027970;28;20038;-78
2023/04/30 04:10:40;;;;;;;11.15;6.43;;;10.30;99.90;;;;;;5026820;28;20026;-78
2023/04/30 04:13:06;;;;;;;10.45;6.70;;;10.30;99.90;;;;;;5031155;28;20120;-77
2023/04/30 04:15:32;;;;;;;10.77;6.38;;;10.20;99.90;;;;;;5031845;28;20472;-76
2023/04/30 04:17:58;;;;;;;9.70;6.60;;;10.20;99.90;;;;;;5024411;28;20138;-76
2023/04/30 04:20:28;;;;;;;9.70;5.72;;;10.20;99.90;;;;;;5011049;28;20053;-77
2023/04/30 04:22:54;;;;;;;11.77;6.50;;;10.20;99.90;;;;;;5028537;28;20040;-77
2023/04/30 04:25:24;;;;;;;11.20;6.15;;;10.10;99.90;;;;;;5006573;28;20033;-76
2023/04/30 04:27:55;;;;;;;13.95;7.13;;;10.10;99.90;;;;;;5024273;28;20203;-76
2023/04/30 04:30:21;;;;;;;10.13;6.53;;;10.10;99.90;;;;;;5023130;28;20028;-76
2023/04/30 04:32:49;;;;;;;13.20;7.38;;;10.10;99.90;;;;;;5027356;28;20029;-75
2023/04/30 04:35:23;;;;;;;10.48;6.45;;;10.10;99.90;;;;;;5009662;28;20130;-75
2023/04/30 04:37:49;;;;;;;10.25;6.95;;;10.00;99.90;;;;;;5026990;28;20071;-76
2023/04/30 04:40:18;;;;;;;12.27;6.43;;;10.10;99.90;;;;;;5015923;28;20631;-76
2023/04/30 04:42:50;;;;;;;11.55;6.32;;;10.10;99.90;;;;;;5032158;28;20030;-76
2023/04/30 04:45:16;;;;;;;10.95;6.47;;;10.10;99.90;;;;;;5026344;28;20075;-76
2023/04/30 04:47:41;;;;;;;10.70;6.07;;;10.10;99.90;;;;;;5025470;28;20054;-75
2023/04/30 04:50:07;;;;;;;11.80;6.03;;;10.00;99.90;;;;;;5029752;28;20025;-75
2023/04/30 04:52:33;;;;;;;9.27;5.95;;;10.00;99.90;;;;;;5030280;28;20021;-75
2023/04/30 04:54:58;;;;;;;10.20;6.22;;;10.00;99.90;;;;;;5029451;28;20511;-75
2023/04/30 04:57:27;;;;;;;11.15;6.13;;;10.00;99.90;;;;;;5024397;28;20029;-75
2023/04/30 04:59:52;;;;;;;8.95;5.53;;;10.00;99.90;;;;;;5029065;28;20037;-75
2023/04/30 05:02:22;;;;;;;9.75;5.78;;;10.00;99.90;;;;;;5028911;28;20089;-76
2023/04/30 05:04:49;;;;;;;12.18;6.07;;;10.00;99.90;;;;;;5029739;28;20092;-76
2023/04/30 05:07:16;;;;;;;11.00;6.00;;;10.10;99.90;;;;;;5027695;28;20118;-75
2023/04/30 05:09:42;;;;;;;13.07;6.30;;;10.20;99.90;;;;;;5027722;28;20537;-77
2023/04/30 05:12:08;;;;;;;10.40;6.43;;;10.30;99.90;;;;;;5027689;28;20061;-76
2023/04/30 05:14:33;;;;;;;11.40;5.90;;;10.40;99.90;;;;;;5025952;28;20084;-77
2023/04/30 05:16:59;;;;;;;8.65;5.80;;;10.50;99.90;;;;;;5026709;28;20033;-76
2023/04/30 05:19:25;;;;;;;10.70;6.20;;;10.60;99.90;;;;;;5013141;28;20536;-76
2023/04/30 05:21:53;;;;;;;12.32;5.93;;;10.70;99.90;;;;;;5024503;28;20034;-76
2023/04/30 05:24:22;;;;;;;10.30;6.20;;;10.80;99.90;;;;;;5027243;28;20104;-78
2023/04/30 05:26:51;;;;;;;9.98;5.78;;;10.90;99.90;;;;;;5011539;28;21245;-77
2023/04/30 05:29:16;;;;;;;10.60;5.30;;;11.10;99.90;;;;;;5019024;28;20033;-75
2023/04/30 05:31:48;;;;;;;10.65;6.20;;;11.20;99.90;;;;;;5027120;28;20112;-77
2023/04/30 05:34:14;;;;;;;10.68;6.13;;;11.20;99.90;;;;;;5029761;28;20112;-74
2023/04/30 05:36:40;;;;;;;8.07;5.35;;;11.20;99.90;;;;;;5027890;28;20555;-74
2023/04/30 05:39:05;;;;;;;11.80;6.53;;;11.30;99.90;;;;;;5027014;28;20034;-78
2023/04/30 05:41:31;;;;;;;10.23;5.20;;;11.30;99.90;;;;;;5027603;28;20021;-78
2023/04/30 05:43:56;;;;;;;10.63;5.43;;;11.30;99.90;;;;;;5032623;28;20186;-78
2023/04/30 05:46:22;;;;;;;8.85;5.07;;;11.40;99.90;;;;;;5031144;28;20021;-77
2023/04/30 05:48:47;;;;;;;7.88;5.00;;;11.40;99.90;;;;;;5030782;28;20029;-77
2023/04/30 05:51:13;;;;;;;9.07;6.10;;;11.40;99.90;;;;;;5032121;28;20384;-78
2023/04/30 05:53:42;;;;;;;8.48;5.85;;;11.50;99.90;;;;;;5014174;28;20021;-78
2023/04/30 05:56:07;;;;;;;9.32;5.32;;;11.60;99.90;;;;;;5031533;28;20037;-78
2023/04/30 05:58:33;;;;;;;7.35;4.78;;;11.60;99.90;;;;;;5030027;28;20080;-75
2023/04/30 06:00:59;;;;;;;8.20;5.15;;;11.70;99.90;;;;;;5026040;28;20030;-78
2023/04/30 06:03:27;;;;;;;8.43;5.45;;;11.70;99.90;;;;;;5033094;28;20034;-77
2023/04/30 06:05:53;;;;;;;8.48;5.80;;;11.80;99.90;;;;;;5030502;28;20063;-77
2023/04/30 06:08:19;;;;;;;8.35;5.45;;;11.80;99.90;;;;;;5025656;28;20447;-77
2023/04/30 06:10:45;;;;;;;10.52;5.57;;;11.80;99.90;;;;;;5025825;28;20045;-78
2023/04/30 06:13:11;;;;;;;8.95;5.70;;;11.80;99.90;;;;;;5028110;28;20041;-77
2023/04/30 06:15:37;;;;;;;8.30;5.90;;;11.70;99.90;;;;;;5028769;28;20037;-77
2023/04/30 06:18:02;;;;;;;9.35;5.97;;;11.70;99.90;;;;;;5029554;28;20033;-76
2023/04/30 06:20:28;;;;;;;8.73;5.38;;;11.70;99.90;;;;;;5030033;28;20022;-77
2023/04/30 06:22:54;;;;;;;9.30;5.78;;;11.60;99.90;;;;;;5027738;28;20499;-77
2023/04/30 06:25:20;;;;;;;10.15;6.63;;;11.60;99.90;;;;;;5028474;28;20025;-77
2023/04/30 06:27:45;;;;;;;9.07;6.05;;;11.60;99.90;;;;;;5028242;28;20157;-78
2023/04/30 06:30:11;;;;;;;9.43;6.10;;;11.60;99.90;;;;;;5023721;28;20916;-77
2023/04/30 06:32:37;;;;;;;8.98;5.90;;;11.70;99.90;;;;;;5008287;28;20033;-77
2023/04/30 06:35:03;;;;;;;10.52;6.47;;;11.70;99.90;;;;;;5031532;28;20404;-77
2023/04/30 06:37:34;;;;;;;8.80;6.75;;;11.70;99.90;;;;;;5027071;28;20029;-77
2023/04/30 06:40:00;;;;;;;12.13;6.68;;;11.70;99.90;;;;;;5026514;28;20044;-78
2023/04/30 06:42:34;;;;;;;10.18;6.93;;;11.70;99.90;;;;;;5027803;28;20040;-77
2023/04/30 06:45:01;;;;;;;10.00;6.03;;;11.70;99.90;;;;;;5028697;28;20022;-77
2023/04/30 06:47:27;;;;;;;10.90;6.35;;;11.70;99.90;;;;;;5008830;28;20040;-74
2023/04/30 06:49:53;;;;;;;9.73;6.20;;;11.80;99.90;;;;;;5025163;28;20105;-78
2023/04/30 06:52:18;;;;;;;30.90;8.50;;;11.90;99.90;;;;;;5023944;28;20073;-73
2023/04/30 06:54:44;;;;;;;11.57;7.30;;;11.90;99.90;;;;;;5030965;28;20432;-77
2023/04/30 06:57:09;;;;;;;10.18;6.13;;;11.90;99.90;;;;;;5029660;28;20029;-77
2023/04/30 06:59:35;;;;;;;13.02;6.15;;;12.00;99.90;;;;;;5025015;28;20471;-77
2023/04/30 07:02:00;;;;;;;10.77;6.05;;;12.00;99.90;;;;;;5029022;28;20084;-77
2023/04/30 07:04:27;;;;;;;9.88;6.32;;;12.00;99.90;;;;;;5029747;28;20026;-79
2023/04/30 07:06:52;;;;;;;9.45;5.88;;;12.00;99.90;;;;;;5030545;28;20102;-77
2023/04/30 07:09:18;;;;;;;10.93;6.00;;;12.00;99.90;;;;;;5028008;28;20133;-78
2023/04/30 07:11:44;;;;;;;8.88;6.05;;;12.00;99.90;;;;;;5045933;23;20037;-73
2023/04/30 07:14:10;;;;;;;8.90;5.47;;;12.10;99.90;;;;;;5022832;28;20445;-73
2023/04/30 07:16:35;;;;;;;12.88;6.90;;;12.20;99.90;;;;;;5024645;28;20437;-74
2023/04/30 07:19:01;;;;;;;10.77;7.10;;;12.20;99.90;;;;;;5027128;28;20024;-73
2023/04/30 07:21:27;;;;;;;12.52;6.55;;;12.20;99.90;;;;;;5022448;28;20021;-72
2023/04/30 07:24:01;;;;;;;10.18;6.90;;;12.30;99.90;;;;;;5004348;28;20507;-74
2023/04/30 07:26:29;;;;;;;11.90;7.20;;;12.30;99.90;;;;;;5004401;28;20022;-73
2023/04/30 07:28:58;;;;;;;14.50;6.53;;;12.30;99.90;;;;;;5006942;28;20050;-74
2023/04/30 07:31:24;;;;;;;10.30;6.35;;;12.40;99.90;;;;;;5005126;28;20018;-74
2023/04/30 07:33:54;;;;;;;10.52;6.53;;;12.40;99.90;;;;;;4992896;28;20419;-73
2023/04/30 07:36:28;;;;;;;9.10;6.25;;;12.50;99.90;;;;;;5007016;28;20026;-73
2023/04/30 07:38:57;;;;;;;9.85;6.25;;;12.50;99.90;;;;;;5007461;28;20022;-74
2023/04/30 07:41:26;;;;;;;9.05;6.28;;;12.60;99.90;;;;;;5003620;28;20172;-73
2023/04/30 07:43:52;;;;;;;9.07;5.90;;;12.60;99.90;;;;;;5008757;28;20041;-74
2023/04/30 07:46:24;;;;;;;10.75;6.65;;;12.70;99.90;;;;;;5004368;28;20030;-74
2023/04/30 07:49:02;;;;;;;8.50;5.90;;;12.70;99.90;;;;;;5007295;28;20102;-74
2023/04/30 07:51:28;;;;;;;7.82;5.50;;;12.80;99.90;;;;;;5006103;28;20018;-74
2023/04/30 07:53:54;;;;;;;12.48;7.65;;;12.80;99.90;;;;;;4989940;28;20041;-75
2023/04/30 07:56:20;;;;;;;7.43;5.18;;;12.80;99.90;;;;;;5010177;28;20065;-74
2023/04/30 07:58:46;;;;;;;11.05;5.95;;;12.90;99.90;;;;;;5007860;28;20033;-74
2023/04/30 08:01:12;;;;;;;7.63;5.50;;;13.00;99.90;;;;;;4988508;28;20471;-75
2023/04/30 08:03:40;;;;;;;8.60;5.43;;;13.10;99.90;;;;;;5008628;28;20559;-74
2023/04/30 08:06:09;;;;;;;6.05;4.47;;;13.20;99.90;;;;;;5002897;28;20435;-74
2023/04/30 08:08:35;;;;;;;5.75;4.55;;;13.30;99.90;;;;;;5005740;28;20061;-74
2023/04/30 08:11:00;;;;;;;6.40;4.53;;;13.40;99.90;;;;;;4994108;28;20436;-75
2023/04/30 08:13:26;;;;;;;6.68;3.90;;;13.60;99.90;;;;;;5012019;28;20040;-74
2023/04/30 08:15:51;;;;;;;4.70;3.42;;;13.70;99.90;;;;;;5008952;28;20125;-74
2023/04/30 08:18:17;;;;;;;4.25;3.22;;;13.90;99.90;;;;;;5007412;28;20377;-74
2023/04/30 08:20:43;;;;;;;6.90;4.22;;;14.00;99.90;;;;;;5011325;28;20036;-74
2023/04/30 08:23:15;;;;;;;7.13;4.10;;;14.00;99.90;;;;;;5010852;28;20037;-74
2023/04/30 08:25:41;;;;;;;5.05;3.33;;;14.10;99.90;;;;;;5009135;28;20022;-73
2023/04/30 08:28:07;;;;;;;6.03;3.78;;;14.20;99.90;;;;;;5011541;28;20030;-74
2023/04/30 08:30:35;;;;;;;6.13;3.53;;;14.30;99.90;;;;;;5008640;28;20389;-73
2023/04/30 08:33:07;;;;;;;5.13;3.63;;;14.40;99.90;;;;;;5009791;28;20026;-73
2023/04/30 08:35:35;;;;;;;4.68;3.70;;;14.40;99.90;;;;;;5010640;28;20034;-73
2023/04/30 08:38:01;;;;;;;5.43;3.42;;;14.40;99.90;;;;;;5008403;28;20041;-74
2023/04/30 08:40:35;;;;;;;6.72;3.53;;;14.50;99.90;;;;;;4974443;28;20047;-73
2023/04/30 08:43:07;;;;;;;5.07;3.60;;;14.60;99.90;;;;;;4991827;28;20030;-72
2023/04/30 08:45:35;;;;;;;4.22;3.40;;;14.70;99.90;;;;;;4986698;28;20046;-75
2023/04/30 08:48:03;;;;;;;6.28;3.50;;;14.80;99.90;;;;;;4987977;28;20121;-74
2023/04/30 08:50:35;;;;;;;4.78;3.53;;;14.80;99.90;;;;;;4990217;28;20034;-75
2023/04/30 08:53:04;;;;;;;4.88;3.40;;;14.80;99.90;;;;;;4990592;28;20026;-74
2023/04/30 08:55:33;;;;;;;5.43;3.70;;;14.80;99.90;;;;;;4990781;28;20105;-74
2023/04/30 08:58:01;;;;;;;5.22;3.83;;;14.70;99.90;;;;;;4989950;28;20069;-74
2023/04/30 09:00:27;;;;;;;4.30;3.40;;;14.60;99.90;;;;;;4993634;28;20026;-75
2023/04/30 09:02:52;;;;;;;5.80;3.25;;;14.60;99.90;;;;;;4977508;28;20477;-75
2023/04/30 09:05:18;;;;;;;7.35;3.65;;;14.60;99.90;;;;;;4991675;28;20034;-75
2023/04/30 09:07:45;;;;;;;4.35;2.80;;;14.60;99.90;;;;;;4991637;28;20030;-74
2023/04/30 09:10:19;;;;;;;4.32;3.15;;;14.70;99.90;;;;;;4993232;28;20072;-74
2023/04/30 09:13:02;;;;;;;3.92;2.92;;;14.60;99.90;;;;;;4992574;28;20031;-75
2023/04/30 09:15:36;;;;;;;5.32;3.33;;;14.70;99.90;;;;;;4989697;28;20031;-77
2023/04/30 09:18:05;;;;;;;;;;;14.70;99.90;;;;;;4995742;28;20492;-75
2023/04/30 09:20:30;;;;;;;4.88;3.53;;;14.70;99.90;;;;;;4977508;28;19915;-76
2023/04/30 09:23:09;;;;;;;3.40;2.17;;;14.80;99.90;;;;;;4968917;28;20038;-76
2023/04/30 09:25:41;;;;;;;3.78;2.58;;;14.90;99.90;;;;;;4985751;28;20038;-75
2023/04/30 09:28:11;;;;;;;2.92;2.03;;;15.00;99.90;;;;;;4972604;28;20022;-73
2023/04/30 09:30:38;;;;;;;2.65;1.90;;;15.00;99.80;;;;;;4991486;28;20026;-73
2023/04/30 09:33:03;;;;;;;6.35;3.50;;;15.10;99.30;;;;;;4983610;28;20102;-75
2023/04/30 09:35:37;;;;;;;4.97;2.58;;;15.00;99.00;;;;;;4986400;28;20452;-74
2023/04/30 09:38:03;;;;;;;4.45;2.78;;;15.00;99.00;;;;;;4989296;28;20026;-74
2023/04/30 09:40:47;;;;;;;4.32;2.03;;;15.10;99.40;;;;;;4988093;28;20103;-74
2023/04/30 09:43:16;;;;;;;4.75;2.10;;;15.10;98.70;;;;;;4989700;28;20032;-73
2023/04/30 09:45:47;;;;;;;3.42;2.13;;;15.20;98.70;;;;;;4987609;28;20034;-74
2023/04/30 09:48:24;;;;;;;2.25;1.98;;;15.20;98.60;;;;;;4985524;28;20052;-74
2023/04/30 09:50:50;;;;;;;4.07;2.45;;;15.20;98.10;;;;;;4990176;28;20031;-74
2023/04/30 09:53:16;;;;;;;3.50;2.28;;;15.20;97.90;;;;;;4990282;28;20033;-73
2023/04/30 09:55:46;;;;;;;4.75;2.85;;;15.20;97.50;;;;;;4990759;28;20109;-73
2023/04/30 09:58:13;;;;;;;3.45;2.67;;;15.30;97.40;;;;;;4987195;28;20030;-74
2023/04/30 10:00:39;;;;;;;3.72;2.28;;;15.30;97.30;;;;;;4986802;28;20040;-74
2023/04/30 10:03:12;;;;;;;5.22;3.30;;;15.30;97.20;;;;;;4992501;28;20322;-73
2023/04/30 10:05:38;;;;;;;3.85;2.60;;;15.40;96.50;;;;;;4990635;28;20153;-74
2023/04/30 10:08:09;;;;;;;7.38;4.13;;;15.40;96.60;;;;;;4988028;28;20117;-74
2023/04/30 10:10:41;;;;;;;11.88;6.72;;;15.20;97.10;;;;;;4988684;28;20511;-75
2023/04/30 10:13:12;;;;;;;7.30;4.13;;;15.30;97.40;;;;;;4988058;28;20030;-73
2023/04/30 10:15:42;;;;;;;3.90;3.08;;;15.20;97.70;;;;;;4990505;28;20018;-74
2023/04/30 10:18:22;;;;;;;6.97;3.88;;;15.20;97.50;;;;;;4989649;28;20045;-74
2023/04/30 10:20:49;;;;;;;13.70;6.90;;;15.20;98.30;;;;;;4990838;28;20041;-73
2023/04/30 10:23:18;;;;;;;10.32;5.18;;;15.20;98.60;;;;;;4988244;28;20084;-74
2023/04/30 10:25:50;;;;;;;16.85;7.90;;;15.20;99.10;;;;;;4986305;28;20033;-73
2023/04/30 10:28:19;;;;;;;7.03;4.60;;;15.30;98.50;;;;;;4991038;28;20031;-73
2023/04/30 10:30:44;;;;;;;6.13;3.40;;;15.30;98.20;;;;;;4986328;28;20023;-73
2023/04/30 10:33:33;;;;;;;4.65;2.80;;;15.30;97.50;;;;;;4969049;28;20029;-73
2023/04/30 10:36:20;;;;;;;4.88;3.58;;;15.20;97.40;;;;;;4987348;28;20041;-74
2023/04/30 10:38:46;;;;;;;6.85;3.28;;;15.20;97.40;;;;;;4986283;28;20454;-73
2023/04/30 10:41:12;;;;;;;5.93;3.20;;;15.20;96.90;;;;;;4986336;28;20023;-73
2023/04/30 10:43:40;;;;;;;3.65;2.90;;;15.20;97.20;;;;;;4988817;28;20494;-73
2023/04/30 10:46:07;;;;;;;5.20;3.22;;;15.20;96.70;;;;;;4990089;28;20041;-73
2023/04/30 10:48:34;;;;;;;4.00;2.85;;;15.20;96.90;;;;;;4988804;28;20488;-73
2023/04/30 10:51:03;;;;;;;3.33;2.78;;;15.20;96.70;;;;;;4989958;28;20469;-73
2023/04/30 10:53:39;;;;;;;4.07;2.58;;;15.30;97.00;;;;;;4989951;28;20540;-75
2023/04/30 10:56:07;;;;;;;3.10;2.33;;;15.30;96.40;;;;;;4990202;28;20085;-74
2023/04/30 10:58:40;;;;;;;3.47;2.30;;;15.40;96.00;;;;;;4973032;28;20392;-74
2023/04/30 11:01:07;;;;;;;4.63;2.50;;;15.40;95.60;;;;;;4985542;28;20053;-74
2023/04/30 11:03:37;;;;;;;3.42;2.42;;;15.50;95.70;;;;;;4986005;28;20026;-74
2023/04/30 11:06:13;;;;;;;5.40;2.80;;;15.60;95.20;;;;;;4984235;28;20037;-75
2023/04/30 11:08:43;;;;;;;3.40;2.28;;;15.70;95.20;;;;;;4983141;28;20145;-74
2023/04/30 11:11:09;;;;;;;3.70;2.50;;;15.80;95.00;;;;;;4989214;28;20109;-74
2023/04/30 11:13:46;;;;;;;6.03;2.42;;;15.90;95.00;;;;;;4988203;28;20034;-74
2023/04/30 11:16:15;;;;;;;3.92;2.67;;;15.80;95.00;;;;;;4971276;28;20046;-74
2023/04/30 11:18:44;;;;;;;6.10;3.35;;;15.80;94.70;;;;;;4975333;28;20018;-74
2023/04/30 11:21:10;;;;;;;5.15;3.05;;;15.80;94.90;;;;;;4989416;28;20050;-75
2023/04/30 11:23:43;;;;;;;3.17;2.30;;;15.80;95.30;;;;;;4986167;28;20100;-74
2023/04/30 11:26:11;;;;;;;7.32;2.75;;;15.90;95.20;;;;;;4988518;28;20388;-74
2023/04/30 11:28:37;;;;;;;4.68;2.70;;;15.90;94.90;;;;;;4988738;28;20073;-74
2023/04/30 11:31:03;;;;;;;9.48;4.15;;;15.80;94.30;;;;;;4987870;28;20026;-74
2023/04/30 11:33:33;;;;;;;4.10;3.05;;;15.80;94.40;;;;;;4988495;28;20035;-74
2023/04/30 11:36:00;;;;;;;9.65;5.15;;;15.80;94.40;;;;;;4987004;28;20057;-74
2023/04/30 11:38:28;;;;;;;7.18;4.15;;;15.80;94.30;;;;;;4973497;28;20137;-74
2023/04/30 11:40:59;;;;;;;8.88;4.60;;;15.80;94.30;;;;;;4985633;28;20121;-75
2023/04/30 11:43:32;;;;;;;5.65;3.70;;;15.90;94.80;;;;;;4989917;28;20029;-74
2023/04/30 11:46:26;;;;;;;9.52;4.40;;;15.90;94.50;;;;;;4986778;28;20041;-74
2023/04/30 11:48:51;;;;;;;13.77;5.10;;;15.90;94.10;;;;;;4985936;28;20124;-74
2023/04/30 11:51:21;;;;;;;6.25;3.08;;;15.90;94.50;;;;;;4988698;28;20062;-74
2023/04/30 11:53:48;;;;;;;9.15;5.13;;;15.90;94.30;;;;;;4987988;28;20081;-73
2023/04/30 11:56:24;;;;;;;7.30;3.22;;;15.90;94.30;;;;;;4986872;28;20040;-73
2023/04/30 11:58:54;;;;;;;11.27;4.80;;;15.90;94.30;;;;;;4985807;28;20084;-74
2023/04/30 12:01:20;;;;;;;6.68;4.35;;;16.00;94.20;;;;;;4972205;28;20034;-73
2023/04/30 12:03:53;;;;;;;5.57;3.28;;;16.00;94.20;;;;;;4988794;28;20034;-74
2023/04/30 12:06:24;;;;;;;6.32;3.17;;;16.10;94.20;;;;;;4972017;28;20258;-74
2023/04/30 12:09:11;;;;;;;7.90;2.42;;;16.20;93.30;;;;;;4985728;28;20031;-73
2023/04/30 12:11:38;;;;;;;4.25;2.83;;;16.20;93.30;;;;;;4974877;28;20497;-74
2023/04/30 12:14:15;;;;;;;3.42;2.22;;;16.10;93.00;;;;;;4986158;28;20422;-74
2023/04/30 12:16:55;;;;;;;4.28;2.55;;;16.10;92.90;;;;;;4973917;28;20035;-73
2023/04/30 12:19:24;;;;;;;4.03;2.47;;;16.10;93.10;;;;;;4987878;28;20106;-73
2023/04/30 12:21:53;;;;;;;2.65;2.08;;;16.30;93.30;;;;;;4984663;28;20030;-73
2023/04/30 12:24:19;;;;;;;3.47;2.42;;;16.20;92.10;;;;;;4970983;28;20106;-74
2023/04/30 12:26:52;;;;;;;4.15;2.55;;;16.20;92.00;;;;;;4970427;28;20371;-73
2023/04/30 12:29:18;;;;;;;6.10;2.25;;;16.30;91.90;;;;;;4986085;28;20459;-73
2023/04/30 12:31:44;;;;;;;5.10;2.63;;;16.30;91.90;;;;;;4984925;28;20500;-73
2023/04/30 12:34:14;;;;;;;2.35;2.08;;;16.30;91.70;;;;;;4987180;28;20122;-73
2023/04/30 12:36:43;;;;;;;2.70;2.20;;;16.30;91.60;;;;;;4987350;28;20022;-74
2023/04/30 12:39:11;;;;;;;3.58;2.75;;;16.30;91.30;;;;;;4986615;28;20489;-73
2023/04/30 12:41:45;;;;;;;2.22;1.80;;;16.30;91.00;;;;;;4966598;28;20101;-73
2023/04/30 12:44:23;;;;;;;4.32;2.30;;;16.30;91.20;;;;;;4988447;28;20018;-73
2023/04/30 12:46:52;;;;;;;3.05;1.80;;;16.40;91.10;;;;;;4985762;28;20034;-74
2023/04/30 12:49:33;;;;;;;3.05;2.03;;;16.40;90.80;;;;;;4988144;28;20026;-73
2023/04/30 12:52:14;;;;;;;2.78;1.95;;;16.60;91.20;;;;;;4994728;28;20117;-73